Station: Cape Nelson  

  Atmospheric Gas Attenuation - ITU Rec 676-11   ----------------- dB/100km -----------------
Date Time Temp RH % AH g/m3 Dew Point Wind Direction Speed kph Gust kph Barometer mB Rainfall Since 9am 24GHz 47GHz 76GHz 122GHz 134GHz 241GHz
08/05 12:30 13.4 90 10.46 11.8 17 32 1026.1 0.4 23.6 29.7 48.4 127.3 125.7 433.9
08/05 12:20 13.7 91 10.78 12.3 17 24 1026.2 0.4 24.2 30.1 49.6 130.5 129.8 448.2
08/05 12:10 13.9 91 10.91 12.5 17 20 1026.1 0.4 24.5 30.3 50.1 131.7 131.4 453.6
08/05 12:00 13.9 91 10.91 12.5 20 33 1026.3 0.4 24.5 30.3 50.1 131.7 131.4 453.7
08/05 11:50 13.4 91 10.58 12 24 39 1026.2 0.4 23.8 29.9 48.9 128.7 127.5 439.9
08/05 11:40 13.5 91 10.64 12.1 17 26 1026.3 0.4 24.0 29.9 49.1 129.2 128.2 442.4
08/05 11:30 13.5 91 10.64 12.1 19 32 1026.5 0.4 24.0 30.0 49.2 129.2 128.2 442.5
08/05 11:20 13.6 91 10.71 12.2 19 32 1026.3 0.2 24.1 30.0 49.4 129.9 129.0 445.3
08/05 11:10 14 90 10.86 12.4 19 28 1026 0.2 24.4 30.1 49.8 130.9 130.5 450.4
08/05 11:00 13.4 91 10.58 12 22 37 1026.1 0.2 23.8 29.9 48.9 128.6 127.5 439.9
08/05 10:50 13.6 91 10.71 12.2 22 43 1025.9 0.2 24.1 30.0 49.4 129.8 129.0 445.2
08/05 10:40 13.5 92 10.76 12.2 17 22 1026 0.2 24.2 30.1 49.7 130.6 129.9 448.3
08/05 10:30 13.7 91 10.78 12.3 19 35 1025.7 0.2 24.2 30.1 49.6 130.4 129.8 448.1
08/05 10:20 13.4 91 10.58 12 17 24 1025.8 0.2 23.8 29.9 48.9 128.6 127.4 439.8
08/05 10:10 13.2 91 10.45 11.8 19 28 1025.7 0.2 23.6 29.7 48.5 127.4 125.9 434.4
08/05 10:00 13.6 91 10.71 12.2 19 30 1025.5 0.2 24.1 30.0 49.4 129.8 128.9 445.1
08/05 09:50 13.2 91 10.45 11.8 15 17 1025.7 0.2 23.6 29.7 48.5 127.4 125.9 434.4
08/05 09:40 13.5 90 10.53 11.9 20 24 1025.3 0 23.7 29.7 48.6 127.8 126.5 436.5
08/05 09:30 13.5 90 10.53 11.9 19 33 1025.3 0 23.7 29.7 48.6 127.8 126.5 436.5
08/05 09:20 13.7 90 10.66 12.1 19 24 1025.2 0 24.0 29.9 49.1 129.0 128.0 441.9
08/05 09:10 13.5 91 10.64 12.1 15 17 1025.2 0 24.0 29.9 49.1 129.1 128.1 442.0
08/05 09:00 13.4 91 10.58 12 19 32 1025.1 0 23.8 29.8 48.9 128.5 127.4 439.6
08/05 08:50 13.2 91 10.45 11.8 22 30 1024.9 1 23.6 29.7 48.4 127.3 125.8 434.1
08/05 08:40 13 91 10.32 11.6 20 33 1025.1 1 23.3 29.5 48.0 126.2 124.3 428.8
08/05 08:30 12.9 91 10.26 11.5 20 44 1025 1 23.2 29.4 47.8 125.6 123.6 426.3
08/05 08:20 13 91 10.32 11.6 17 22 1025.1 1 23.3 29.5 48.0 126.2 124.3 428.8
08/05 08:10 13.2 91 10.45 11.8 20 30 1024.8 0.8 23.6 29.7 48.4 127.3 125.8 434.1
08/05 08:00 13 91 10.32 11.6 22 35 1024.5 0.8 23.3 29.5 48.0 126.1 124.2 428.6
08/05 07:50 13.4 91 10.58 12 20 33 1024.6 0.8 23.8 29.8 48.9 128.5 127.3 439.4
08/05 07:40 13 91 10.32 11.6 26 41 1024.5 0.8 23.3 29.5 48.0 126.1 124.2 428.6
08/05 07:30 13.1 90 10.27 11.5 22 44 1024.1 0.8 23.2 29.3 47.7 125.3 123.3 425.4
08/05 07:20 13.3 90 10.4 11.7 20 28 1024 0.8 23.5 29.5 48.1 126.5 124.8 430.7
08/05 07:10 13 90 10.21 11.4 22 30 1023.9 0.8 23.1 29.3 47.5 124.7 122.6 422.9
08/05 07:00 13 90 10.21 11.4 22 52 1023.9 0.8 23.1 29.3 47.5 124.7 122.6 422.9
08/05 06:50 13.3 90 10.4 11.7 24 39 1023.7 0.8 23.5 29.5 48.1 126.4 124.8 430.6
08/05 06:40 12.8 90 10.08 11.2 22 28 1023.5 0.8 22.8 29.1 47.0 123.5 121.0 417.4
08/05 06:30 13.1 90 10.27 11.5 22 41 1023.4 0.8 23.2 29.3 47.6 125.2 123.2 425.2
08/05 06:20 13 88 9.98 11.1 26 46 1023.6 0.8 22.6 28.9 46.5 122.1 119.3 411.4
08/05 06:10 13.3 87 10.05 11.2 20 35 1023.4 0.8 22.7 28.9 46.6 122.4 119.8 413.2
08/05 06:00 13.4 87 10.11 11.3 20 43 1023.3 0.8 22.8 28.9 46.8 122.9 120.5 415.6
08/05 05:50 13.2 86 9.88 10.9 22 32 1023.2 0.8 22.3 28.6 45.9 120.6 117.6 405.3
08/05 05:40 13.3 85 9.82 10.8 22 35 1023.2 0.8 22.2 28.5 45.6 119.7 116.6 401.8
08/05 05:30 13.2 84 9.65 10.6 24 48 1023.2 0.8 21.9 28.2 44.9 117.9 114.3 394.1
08/05 05:20 13.7 85 10.07 11.2 22 30 1023.1 0.8 22.7 28.8 46.4 121.9 119.4 411.9
08/05 05:10 13.4 85 9.88 10.9 24 37 1023 0.8 22.3 28.5 45.8 120.2 117.2 404.2
08/05 05:00 13.3 86 9.94 11 22 43 1022.9 0.8 22.5 28.7 46.1 121.0 118.2 407.6
08/05 04:50 13.3 85 9.82 10.8 20 32 1022.8 0.8 22.2 28.4 45.6 119.7 116.5 401.7
08/05 04:40 13.4 85 9.88 10.9 26 32 1022.7 0.8 22.3 28.5 45.7 120.2 117.2 404.1
08/05 04:30 13.5 86 10.06 11.2 24 50 1022.7 0.8 22.7 28.8 46.5 122.1 119.6 412.4
08/05 04:20 13.3 86 9.94 11 24 37 1022.6 0.8 22.5 28.6 46.1 121.0 118.2 407.5
08/05 04:10 13.3 86 9.94 11 30 41 1022.5 0.8 22.5 28.6 46.1 121.0 118.2 407.5
08/05 04:00 13.3 86 9.94 11 26 39 1022.4 0.8 22.5 28.6 46.0 121.0 118.2 407.5
08/05 03:50 13.7 86 10.18 11.4 32 37 1022.8 0.8 23.0 28.9 46.9 123.1 121.0 417.3
08/05 03:40 13.1 86 9.81 10.8 24 35 1022.4 0.8 22.2 28.5 45.6 119.8 116.6 402.1
08/05 03:30 13.6 85 10 11.1 28 48 1022.7 0.8 22.6 28.7 46.1 121.2 118.6 408.9
08/05 03:20 13.8 85 10.13 11.3 24 33 1022.5 0.8 22.9 28.8 46.6 122.4 120.1 414.2
08/05 03:10 13.5 86 10.06 11.2 26 33 1022.4 0.8 22.7 28.8 46.4 122.0 119.5 412.3
08/05 03:00 13.5 87 10.18 11.4 24 37 1022.5 0.8 23.0 29.0 47.0 123.4 121.2 418.2
08/05 02:50 13.1 86 9.81 10.8 26 37 1022.6 0.8 22.2 28.5 45.6 119.8 116.7 402.2
08/05 02:40 13.5 86 10.06 11.2 28 41 1022.6 0.8 22.7 28.8 46.5 122.1 119.6 412.4
08/05 02:30 13.5 87 10.18 11.4 26 50 1022.5 0.8 23.0 29.0 47.0 123.4 121.2 418.2
08/05 02:20 13.5 86 10.06 11.2 26 39 1022.6 0.6 22.7 28.8 46.5 122.1 119.6 412.4
08/05 02:10 13.5 85 9.94 11 28 46 1022.8 0.6 22.5 28.6 46.0 120.7 117.9 406.5
08/05 02:00 13.8 85 10.13 11.3 24 48 1022.8 0.6 22.9 28.8 46.6 122.4 120.1 414.3
08/05 01:50 13.7 85 10.07 11.2 24 37 1022.6 0.6 22.7 28.7 46.4 121.9 119.4 411.8
08/05 01:40 13.9 86 10.31 11.6 37 48 1023 0.6 23.2 29.1 47.3 124.3 122.5 422.6
08/05 01:30 13.8 86 10.25 11.5 33 56 1023.1 0.6 23.1 29.0 47.1 123.8 121.8 420.3
08/05 01:20 13.7 87 10.3 11.6 33 50 1022.8 0.6 23.2 29.1 47.4 124.5 122.6 423.2
08/05 01:10 13.7 87 10.3 11.6 37 56 1022.9 0.6 23.2 29.1 47.4 124.5 122.7 423.2
08/05 01:00 13.7 88 10.42 11.8 30 52 1023.1 0.6 23.5 29.4 47.9 125.9 124.4 429.2
08/05 00:50 13.7 89 10.54 11.9 33 46 1023.1 0.6 23.7 29.6 48.4 127.3 126.1 435.2
08/05 00:40 13.7 90 10.66 12.1 28 44 1023.1 0.6 24.0 29.8 48.9 128.7 127.8 441.2
08/05 00:30 13.3 90 10.4 11.7 28 54 1023.1 0.6 23.5 29.5 48.1 126.4 124.7 430.4
08/05 00:20 13.6 90 10.59 12 32 46 1023.1 0.6 23.8 29.7 48.7 128.1 127.0 438.2
08/05 00:10 13.5 90 10.53 11.9 30 39 1023.2 0.6 23.7 29.6 48.5 127.6 126.3 435.8
08/05 00:00 13.3 90 10.4 11.7 32 52 1023.2 0.6 23.5 29.5 48.1 126.4 124.8 430.5
07/05 23:50 13.2 90 10.33 11.6 37 50 1023.2 0.6 23.3 29.4 47.8 125.7 123.9 427.5
07/05 23:40 13.6 89 10.47 11.8 30 41 1023.3 0.6 23.6 29.5 48.2 126.7 125.3 432.3
07/05 23:30 13.7 89 10.54 11.9 37 54 1023.8 0.6 23.7 29.6 48.5 127.4 126.2 435.4
07/05 23:20 13.7 88 10.42 11.7 37 46 1024.1 0.6 23.5 29.4 48.0 126.1 124.5 429.5
07/05 23:10 13.5 88 10.29 11.6 26 33 1024.1 0.6 23.2 29.2 47.5 124.9 123.0 424.2
07/05 23:00 13.1 88 10.04 11.2 30 48 1024.3 0.6 22.7 29.0 46.7 122.7 120.1 414.1
07/05 22:50 13.3 87 10.05 11.2 28 39 1024.1 0.4 22.7 28.9 46.6 122.4 119.9 413.4
07/05 22:40 13.7 87 10.3 11.6 26 37 1024.1 0.4 23.2 29.2 47.4 124.7 122.8 423.6
07/05 22:30 13.7 86 10.18 11.4 30 50 1023.9 0.4 23.0 29.0 46.9 123.3 121.1 417.6
07/05 22:20 13.5 86 10.06 11.2 35 52 1024.2 0.4 22.7 28.8 46.5 122.3 119.7 412.9
07/05 22:10 13.5 87 10.18 11.4 32 43 1024 0.4 23.0 29.0 47.0 123.6 121.4 418.7
07/05 22:00 13.4 87 10.11 11.3 32 50 1024.1 0.4 22.8 29.0 46.8 123.0 120.6 415.8
07/05 21:50 13.1 86 9.81 10.8 32 41 1023.8 0.4 22.2 28.5 45.7 120.0 116.8 402.6
07/05 21:40 13.5 84 9.83 10.9 28 37 1023.8 0.2 22.2 28.4 45.5 119.6 116.4 401.5
07/05 21:30 13.4 84 9.77 10.8 41 61 1023.9 0.2 22.1 28.4 45.3 119.1 115.8 399.1
07/05 21:20 13.6 82 9.65 10.6 33 43 1023.6 0.2 21.8 28.1 44.7 117.4 113.8 392.2
07/05 21:10 13.4 82 9.53 10.4 41 50 1023.7 0.2 21.6 28.0 44.3 116.3 112.4 387.4
07/05 21:00 13.2 81 9.3 10 44 61 1023.7 0.2 21.1 27.6 43.5 114.1 109.5 377.3
07/05 20:50 13.6 79 9.3 10 44 57 1023.9 0.2 21.1 27.5 43.3 113.5 109.0 375.4
07/05 20:40 13.6 77 9.06 9.6 39 46 1023.9 0.2 20.6 27.1 42.3 110.9 105.7 364.0
07/05 20:30 13.5 77 9.01 9.6 44 61 1023.9 0.2 20.5 27.1 42.1 110.4 105.2 362.0
07/05 20:20 14 76 9.17 9.8 33 43 1023.7 0.2 20.8 27.2 42.5 111.5 106.6 367.2
07/05 20:10 13.9 75 8.99 9.5 33 39 1023.6 0.2 20.4 26.9 41.8 109.6 104.3 359.2
07/05 20:00 13.8 75 8.94 9.5 43 57 1023.9 0.2 20.3 26.9 41.7 109.3 103.8 357.4

Last Refresh: 08-May-2026 12:08:18

Bureau of Meteorology